createdAt,value
2017-03-13T00:00:48.666Z,729.7
2017-03-13T00:01:48.641Z,729.72
2017-03-13T00:02:48.623Z,729.75
2017-03-13T00:03:48.602Z,729.77
2017-03-13T00:04:48.577Z,729.79
2017-03-13T00:05:48.556Z,729.73
2017-03-13T00:06:48.533Z,729.75
2017-03-13T00:07:48.512Z,729.75
2017-03-13T00:08:48.496Z,729.76
2017-03-13T00:09:48.470Z,729.78
2017-03-13T00:10:48.448Z,729.82
2017-03-13T00:11:48.431Z,729.8
2017-03-13T00:12:48.410Z,729.93
2017-03-13T00:13:48.385Z,729.94
2017-03-13T00:14:48.368Z,729.92
2017-03-13T00:15:48.346Z,729.97
2017-03-13T00:16:48.321Z,729.97
2017-03-13T00:17:48.303Z,729.97
2017-03-13T00:18:48.279Z,729.96
2017-03-13T00:19:48.260Z,729.99
2017-03-13T00:20:48.240Z,730
2017-03-13T00:21:48.215Z,730
2017-03-13T00:22:48.198Z,730.02
2017-03-13T00:23:48.177Z,730.08
2017-03-13T00:24:48.150Z,730.04
2017-03-13T00:25:48.130Z,730.02
2017-03-13T00:26:48.114Z,730.05
2017-03-13T00:27:48.089Z,730.02
2017-03-13T00:28:48.067Z,730.04
2017-03-13T00:29:48.058Z,730.1
2017-03-13T00:30:48.029Z,730.05
2017-03-13T00:31:48.005Z,730.11
2017-03-13T00:32:47.988Z,730.14
2017-03-13T00:33:47.967Z,730.16
2017-03-13T00:34:47.946Z,730.13
2017-03-13T00:35:47.925Z,730.12
2017-03-13T00:36:47.901Z,730.08
2017-03-13T00:37:47.883Z,730.13
2017-03-13T00:38:47.862Z,730.16
2017-03-13T00:39:47.835Z,730.15
2017-03-13T00:40:47.819Z,730.15
2017-03-13T00:41:47.795Z,730.19
2017-03-13T00:42:47.774Z,730.16
2017-03-13T00:43:47.755Z,730.07
2017-03-13T00:44:47.734Z,730.1
2017-03-13T00:45:47.710Z,730.11
2017-03-13T00:46:47.692Z,730.11
2017-03-13T00:47:47.667Z,730.05
2017-03-13T00:48:47.647Z,730.05
2017-03-13T00:49:47.627Z,730.03
2017-03-13T00:50:47.609Z,730.04
2017-03-13T00:51:47.584Z,730.06
2017-03-13T00:52:47.564Z,730.05
2017-03-13T00:53:47.542Z,730.07
2017-03-13T00:54:47.527Z,730.03
2017-03-13T00:55:47.505Z,730.08
2017-03-13T00:56:47.480Z,729.99
2017-03-13T00:57:47.463Z,729.98
2017-03-13T00:58:47.437Z,730
2017-03-13T00:59:47.417Z,729.95
2017-03-13T01:00:47.396Z,729.97
2017-03-13T01:01:47.378Z,729.94
2017-03-13T01:02:47.358Z,729.94
2017-03-13T01:03:47.333Z,729.94
2017-03-13T01:04:47.316Z,729.96
2017-03-13T01:05:47.292Z,729.97
2017-03-13T01:06:47.270Z,729.94
2017-03-13T01:07:47.252Z,729.96
2017-03-13T01:08:47.231Z,729.95
2017-03-13T01:09:47.209Z,729.99
2017-03-13T01:10:47.184Z,730
2017-03-13T01:11:47.202Z,730.01
2017-03-13T01:12:47.142Z,729.97
2017-03-13T01:13:47.125Z,729.97
2017-03-13T01:14:47.100Z,729.92
2017-03-13T01:15:47.079Z,729.97
2017-03-13T01:16:47.062Z,729.99
2017-03-13T01:17:47.036Z,730.02
2017-03-13T01:18:47.016Z,730.01
2017-03-13T01:19:46.994Z,730.02
2017-03-13T01:20:46.977Z,730.03
2017-03-13T01:21:46.956Z,729.99
2017-03-13T01:22:46.931Z,729.99
2017-03-13T01:23:46.909Z,729.99
2017-03-13T01:24:46.889Z,729.99
2017-03-13T01:25:46.871Z,730
2017-03-13T01:26:46.849Z,730.04
2017-03-13T01:27:46.828Z,729.98
2017-03-13T01:28:46.806Z,730.03
2017-03-13T01:29:46.785Z,729.97
2017-03-13T01:30:46.764Z,729.98
2017-03-13T01:31:46.764Z,729.96
2017-03-13T01:32:46.722Z,729.98
2017-03-13T01:33:46.701Z,729.96
2017-03-13T01:34:46.679Z,730.02
2017-03-13T01:35:46.654Z,730
2017-03-13T01:36:46.634Z,730.03
2017-03-13T01:37:46.611Z,730.07
2017-03-13T01:38:46.594Z,730.05
2017-03-13T01:39:46.573Z,730.06
2017-03-13T01:40:46.548Z,730.13
2017-03-13T01:41:46.530Z,730.12
2017-03-13T01:42:46.506Z,730.12
2017-03-13T01:43:46.486Z,730.17
2017-03-13T01:44:46.467Z,730.13
2017-03-13T01:45:46.441Z,730.12
2017-03-13T01:46:46.419Z,730.17
2017-03-13T01:47:46.399Z,730.17
2017-03-13T01:48:46.377Z,730.16
2017-03-13T01:49:46.355Z,730.15
2017-03-13T01:50:46.338Z,730.19
2017-03-13T01:51:46.313Z,730.2
2017-03-13T01:52:46.296Z,730.16
2017-03-13T01:53:46.273Z,730.16
2017-03-13T01:54:46.252Z,730.19
2017-03-13T01:55:46.231Z,730.15
2017-03-13T01:56:46.209Z,730.19
2017-03-13T01:57:46.184Z,730.15
2017-03-13T01:58:46.164Z,730.16
2017-03-13T01:59:46.145Z,730.16
2017-03-13T02:00:46.121Z,730.17
2017-03-13T02:01:46.103Z,730.18
2017-03-13T02:02:46.077Z,730.17
2017-03-13T02:03:46.055Z,730.18
2017-03-13T02:04:46.039Z,730.12
2017-03-13T02:05:46.015Z,730.14
2017-03-13T02:06:45.996Z,730.18
2017-03-13T02:07:45.974Z,730.22
2017-03-13T02:08:45.950Z,730.18
2017-03-13T02:09:45.932Z,730.09
2017-03-13T02:10:45.915Z,730.15
2017-03-13T02:11:45.888Z,730.12
2017-03-13T02:12:45.862Z,730.12
2017-03-13T02:13:45.845Z,730.12
2017-03-13T02:14:45.819Z,730.09
2017-03-13T02:15:45.801Z,730.08
2017-03-13T02:16:45.779Z,730.07
2017-03-13T02:17:45.754Z,730.02
2017-03-13T02:18:45.731Z,730.07
2017-03-13T02:19:45.714Z,730.11
2017-03-13T02:20:45.692Z,730.18
2017-03-13T02:21:45.667Z,730.18
2017-03-13T02:22:45.646Z,730.21
2017-03-13T02:23:45.629Z,730.17
2017-03-13T02:24:45.608Z,730.23
2017-03-13T02:25:45.585Z,730.18
2017-03-13T02:26:45.562Z,730.2
2017-03-13T02:27:45.544Z,730.27
2017-03-13T02:28:45.522Z,730.24
2017-03-13T02:29:45.500Z,730.29
2017-03-13T02:30:45.479Z,730.31
2017-03-13T02:31:45.479Z,730.29
2017-03-13T02:32:45.432Z,730.26
2017-03-13T02:33:45.412Z,730.29
2017-03-13T02:34:45.389Z,730.29
2017-03-13T02:35:45.372Z,730.33
2017-03-13T02:36:45.350Z,730.3
2017-03-13T02:37:45.335Z,730.32
2017-03-13T02:38:45.309Z,730.32
2017-03-13T02:39:45.283Z,730.38
2017-03-13T02:40:45.262Z,730.4
2017-03-13T02:41:45.242Z,730.38
2017-03-13T02:42:45.224Z,730.39
2017-03-13T02:43:45.200Z,730.34
2017-03-13T02:44:45.181Z,730.37
2017-03-13T02:45:45.156Z,730.35
2017-03-13T02:46:45.139Z,730.35
2017-03-13T02:47:45.115Z,730.36
2017-03-13T02:48:45.096Z,730.39
2017-03-13T02:49:45.076Z,730.31
2017-03-13T02:50:45.049Z,730.36
2017-03-13T02:51:45.029Z,730.39
2017-03-13T02:52:45.007Z,730.39
2017-03-13T02:53:44.990Z,730.4
2017-03-13T02:54:44.964Z,730.42
2017-03-13T02:55:44.947Z,730.41
2017-03-13T02:56:44.921Z,730.44
2017-03-13T02:57:44.905Z,730.44
2017-03-13T02:58:44.883Z,730.46
2017-03-13T02:59:44.861Z,730.42
2017-03-13T03:00:44.835Z,730.51
2017-03-13T03:01:44.814Z,730.47
2017-03-13T03:02:44.793Z,730.46
2017-03-13T03:03:44.773Z,730.48
2017-03-13T03:04:44.755Z,730.48
2017-03-13T03:05:44.729Z,730.46
2017-03-13T03:06:44.712Z,730.49
2017-03-13T03:07:44.691Z,730.51
2017-03-13T03:08:44.670Z,730.5
2017-03-13T03:09:44.647Z,730.49
2017-03-13T03:10:44.623Z,730.5
2017-03-13T03:11:44.602Z,730.45
2017-03-13T03:12:44.583Z,730.48
2017-03-13T03:13:44.561Z,730.48
2017-03-13T03:14:44.536Z,730.46
2017-03-13T03:15:44.516Z,730.47
2017-03-13T03:16:44.493Z,730.54
2017-03-13T03:17:44.475Z,730.53
2017-03-13T03:18:44.450Z,730.54
2017-03-13T03:19:44.433Z,730.57
2017-03-13T03:20:44.406Z,730.6
2017-03-13T03:21:44.386Z,730.58
2017-03-13T03:22:44.368Z,730.6
2017-03-13T03:23:44.341Z,730.55
2017-03-13T03:24:44.320Z,730.62
2017-03-13T03:25:44.298Z,730.62
2017-03-13T03:26:44.278Z,730.6
2017-03-13T03:27:44.254Z,730.63
2017-03-13T03:28:44.233Z,730.62
2017-03-13T03:29:44.211Z,730.57
2017-03-13T03:30:44.191Z,730.63
2017-03-13T03:31:44.172Z,730.56
2017-03-13T03:32:44.150Z,730.59
2017-03-13T03:33:44.125Z,730.59
2017-03-13T03:34:44.110Z,730.62
2017-03-13T03:35:44.085Z,730.63
2017-03-13T03:36:44.067Z,730.65
2017-03-13T03:37:44.042Z,730.63
2017-03-13T03:38:44.020Z,730.61
2017-03-13T03:39:43.999Z,730.58
2017-03-13T03:40:43.977Z,730.62
2017-03-13T03:41:43.955Z,730.62
2017-03-13T03:42:43.927Z,730.67
2017-03-13T03:43:43.911Z,730.64
2017-03-13T03:44:43.890Z,730.63
2017-03-13T03:45:43.868Z,730.67
2017-03-13T03:46:43.846Z,730.7
2017-03-13T03:47:43.822Z,730.75
2017-03-13T03:48:43.799Z,730.69
2017-03-13T03:49:43.777Z,730.75
2017-03-13T03:50:43.759Z,730.7
2017-03-13T03:51:43.735Z,730.68
2017-03-13T03:52:43.713Z,730.66
2017-03-13T03:53:43.690Z,730.65
2017-03-13T03:54:43.676Z,730.7
2017-03-13T03:55:43.650Z,730.7
2017-03-13T03:56:43.623Z,730.67
2017-03-13T03:57:43.607Z,730.71
2017-03-13T03:58:43.581Z,730.72
2017-03-13T03:59:43.564Z,730.7
2017-03-13T04:00:43.542Z,730.75
2017-03-13T04:01:43.520Z,730.76
2017-03-13T04:02:43.498Z,730.75
2017-03-13T04:03:43.478Z,730.76
2017-03-13T04:04:43.451Z,730.71
2017-03-13T04:05:43.430Z,730.76
2017-03-13T04:06:43.412Z,730.74
2017-03-13T04:07:43.389Z,730.73
2017-03-13T04:08:43.364Z,730.73
2017-03-13T04:09:43.341Z,730.71
2017-03-13T04:10:43.322Z,730.76
2017-03-13T04:11:43.301Z,730.76
2017-03-13T04:12:43.280Z,730.78
2017-03-13T04:13:43.254Z,730.75
2017-03-13T04:14:43.233Z,730.74
2017-03-13T04:15:43.211Z,730.81
2017-03-13T04:16:43.189Z,730.84
2017-03-13T04:17:43.171Z,730.84
2017-03-13T04:18:43.146Z,730.89
2017-03-13T04:19:43.128Z,730.85
2017-03-13T04:20:43.106Z,730.82
2017-03-13T04:21:43.084Z,730.79
2017-03-13T04:22:43.064Z,730.8
2017-03-13T04:23:43.041Z,730.79
2017-03-13T04:24:43.015Z,730.84
2017-03-13T04:25:42.993Z,730.82
2017-03-13T04:26:42.972Z,730.87
2017-03-13T04:27:42.953Z,730.89
2017-03-13T04:28:42.931Z,730.9
2017-03-13T04:29:42.909Z,730.9
2017-03-13T04:30:42.882Z,730.86
2017-03-13T04:31:42.861Z,730.89
2017-03-13T04:32:42.840Z,730.92
2017-03-13T04:33:42.821Z,730.89
2017-03-13T04:34:42.799Z,730.9
2017-03-13T04:35:42.774Z,730.9
2017-03-13T04:36:42.751Z,731
2017-03-13T04:37:42.737Z,730.93
2017-03-13T04:38:42.710Z,730.89
2017-03-13T04:39:42.688Z,730.89
2017-03-13T04:40:42.661Z,730.93
2017-03-13T04:41:42.639Z,730.89
2017-03-13T04:42:42.625Z,730.86
2017-03-13T04:43:42.595Z,730.77
2017-03-13T04:44:42.572Z,730.84
2017-03-13T04:45:42.554Z,730.73
2017-03-13T04:46:42.527Z,730.91
2017-03-13T04:47:42.535Z,730.86
2017-03-13T04:48:42.485Z,730.88
2017-03-13T04:49:42.464Z,730.88
2017-03-13T04:50:42.437Z,730.88
2017-03-13T04:51:42.418Z,730.96
2017-03-13T04:52:42.392Z,730.91
2017-03-13T04:53:42.369Z,731.12
2017-03-13T04:54:42.351Z,731.11
2017-03-13T04:55:42.323Z,730.96
2017-03-13T04:56:42.301Z,731.19
2017-03-13T04:57:42.283Z,731.12
2017-03-13T04:58:42.262Z,731.2
2017-03-13T04:59:42.238Z,731.21
2017-03-13T05:00:42.212Z,731.19
2017-03-13T05:01:42.192Z,731.22
2017-03-13T05:02:42.168Z,731.21
2017-03-13T05:03:42.146Z,731.25
2017-03-13T05:04:42.119Z,731.24
2017-03-13T05:05:42.099Z,731.31
2017-03-13T05:06:42.080Z,731.21
2017-03-13T05:07:42.053Z,731.25
2017-03-13T05:08:42.034Z,731.32
2017-03-13T05:09:42.008Z,731.32
2017-03-13T05:10:41.989Z,731.3
2017-03-13T05:11:41.966Z,731.32
2017-03-13T05:12:41.940Z,731.34
2017-03-13T05:13:41.919Z,731.31
2017-03-13T05:14:41.894Z,731.3
2017-03-13T05:15:41.871Z,731.37
2017-03-13T05:16:41.850Z,731.36
2017-03-13T05:17:41.833Z,731.41
2017-03-13T05:18:41.808Z,731.39
2017-03-13T05:19:41.782Z,731.42
2017-03-13T05:20:41.763Z,731.46
2017-03-13T05:21:41.736Z,731.42
2017-03-13T05:22:41.716Z,731.44
2017-03-13T05:23:41.693Z,731.42
2017-03-13T05:24:41.670Z,731.43
2017-03-13T05:25:41.651Z,731.42
2017-03-13T05:26:41.625Z,731.48
2017-03-13T05:27:41.606Z,731.49
2017-03-13T05:28:41.584Z,731.41
2017-03-13T05:29:41.562Z,731.47
2017-03-13T05:30:41.540Z,731.42
2017-03-13T05:31:41.513Z,731.4
2017-03-13T05:32:41.495Z,731.45
2017-03-13T05:33:41.473Z,731.47
2017-03-13T05:34:41.451Z,731.53
2017-03-13T05:35:41.424Z,731.54
2017-03-13T05:36:41.405Z,731.46
2017-03-13T05:37:41.383Z,731.45
2017-03-13T05:38:41.359Z,731.48
2017-03-13T05:39:41.337Z,731.43
2017-03-13T05:40:41.315Z,731.49
2017-03-13T05:41:41.292Z,731.45
2017-03-13T05:42:41.269Z,731.56
2017-03-13T05:43:41.242Z,731.57
2017-03-13T05:44:41.224Z,731.58
2017-03-13T05:45:41.198Z,731.6
2017-03-13T05:46:41.175Z,731.51
2017-03-13T05:47:41.153Z,731.48
2017-03-13T05:48:41.130Z,731.55
2017-03-13T05:49:41.107Z,731.57
2017-03-13T05:50:41.094Z,731.5
2017-03-13T05:51:41.066Z,731.57
2017-03-13T05:52:41.044Z,731.62
2017-03-13T05:53:41.022Z,731.64
2017-03-13T05:54:40.994Z,731.69
2017-03-13T05:55:40.972Z,731.59
2017-03-13T05:56:40.954Z,731.69
2017-03-13T05:57:40.930Z,731.7
2017-03-13T05:58:40.907Z,731.67
2017-03-13T05:59:40.886Z,731.77
2017-03-13T06:00:40.872Z,731.8
2017-03-13T06:01:40.836Z,731.85
2017-03-13T06:02:40.814Z,731.89
2017-03-13T06:03:40.792Z,731.89
2017-03-13T06:04:40.770Z,731.88
2017-03-13T06:05:40.748Z,731.9
2017-03-13T06:06:40.729Z,731.91
2017-03-13T06:07:40.704Z,731.94
2017-03-13T06:08:40.680Z,731.94
2017-03-13T06:09:40.662Z,732
2017-03-13T06:10:40.641Z,731.98
2017-03-13T06:11:40.614Z,732.04
2017-03-13T06:12:40.594Z,732.13
2017-03-13T06:13:40.576Z,732.13
2017-03-13T06:14:40.554Z,732.12
2017-03-13T06:15:40.528Z,732.07
2017-03-13T06:16:40.511Z,732.05
2017-03-13T06:17:40.487Z,732.14
2017-03-13T06:18:40.469Z,732.13
2017-03-13T06:19:40.443Z,732.17
2017-03-13T06:20:40.424Z,732.17
2017-03-13T06:21:40.406Z,732.18
2017-03-13T06:22:40.380Z,732.19
2017-03-13T06:23:40.360Z,732.23
2017-03-13T06:24:40.339Z,732.27
2017-03-13T06:25:40.319Z,732.28
2017-03-13T06:26:40.302Z,732.25
2017-03-13T06:27:40.282Z,732.29
2017-03-13T06:28:40.258Z,732.31
2017-03-13T06:29:40.240Z,732.33
2017-03-13T06:30:40.218Z,732.29
2017-03-13T06:31:40.200Z,732.31
2017-03-13T06:32:40.186Z,732.34
2017-03-13T06:33:40.171Z,732.35
2017-03-13T06:34:40.145Z,732.4
2017-03-13T06:35:40.122Z,732.45
2017-03-13T06:36:40.106Z,732.38
2017-03-13T06:37:40.087Z,732.45
2017-03-13T06:38:40.064Z,732.4
2017-03-13T06:39:40.051Z,732.4
2017-03-13T06:40:40.026Z,732.4
2017-03-13T06:41:40.008Z,732.48
2017-03-13T06:42:39.989Z,732.42
2017-03-13T06:43:39.975Z,732.46
2017-03-13T06:44:39.954Z,732.49
2017-03-13T06:45:39.934Z,732.53
2017-03-13T06:46:39.917Z,732.54
2017-03-13T06:47:39.902Z,732.55
2017-03-13T06:48:39.879Z,732.52
2017-03-13T06:49:39.861Z,732.59
2017-03-13T06:50:39.847Z,732.6
2017-03-13T06:51:39.824Z,732.57
2017-03-13T06:52:39.805Z,732.6
2017-03-13T06:53:39.791Z,732.66
2017-03-13T06:54:39.772Z,732.66
2017-03-13T06:55:39.749Z,732.65
2017-03-13T06:56:39.735Z,732.67
2017-03-13T06:57:39.713Z,732.64
2017-03-13T06:58:39.694Z,732.69
2017-03-13T06:59:39.675Z,732.78
2017-03-13T07:00:39.661Z,732.81
2017-03-13T07:01:39.639Z,732.83
2017-03-13T07:02:39.621Z,732.77
2017-03-13T07:03:39.602Z,732.75
2017-03-13T07:04:39.585Z,732.82
2017-03-13T07:05:39.567Z,732.8
2017-03-13T07:06:39.548Z,732.82
2017-03-13T07:07:39.530Z,732.82
2017-03-13T07:08:39.514Z,732.87
2017-03-13T07:09:39.498Z,732.89
2017-03-13T07:10:39.474Z,732.87
2017-03-13T07:11:39.461Z,732.93
2017-03-13T07:12:39.443Z,732.92
2017-03-13T07:13:39.449Z,732.87
2017-03-13T07:14:39.403Z,732.9
2017-03-13T07:15:39.384Z,732.98
2017-03-13T07:16:39.366Z,733
2017-03-13T07:17:39.351Z,733.05
2017-03-13T07:18:39.330Z,732.93
2017-03-13T07:19:39.315Z,733.01
2017-03-13T07:20:39.296Z,732.92
2017-03-13T07:21:39.274Z,733.03
2017-03-13T07:22:39.255Z,732.99
2017-03-13T07:23:39.236Z,733.05
2017-03-13T07:24:39.218Z,733.17
2017-03-13T07:25:39.200Z,733.15
2017-03-13T07:26:39.183Z,733.24
2017-03-13T07:27:39.167Z,733.06
2017-03-13T07:28:39.150Z,733.19
2017-03-13T07:29:39.129Z,733.19
2017-03-13T07:30:39.106Z,733.17
2017-03-13T07:31:39.093Z,733.23
2017-03-13T07:32:39.073Z,733.22
2017-03-13T07:33:39.055Z,733.24
2017-03-13T07:34:39.036Z,733.27
2017-03-13T07:35:39.017Z,733.22
2017-03-13T07:36:38.995Z,733.31
2017-03-13T07:37:38.980Z,733.21
2017-03-13T07:38:38.959Z,733.15
2017-03-13T07:39:38.942Z,733.25
2017-03-13T07:40:38.918Z,733.22
2017-03-13T07:41:38.905Z,733.26
2017-03-13T07:42:38.886Z,733.24
2017-03-13T07:43:38.862Z,733.28
2017-03-13T07:44:38.847Z,733.38
2017-03-13T07:45:38.829Z,733.4
2017-03-13T07:46:38.809Z,733.34
2017-03-13T07:47:38.791Z,733.4
2017-03-13T07:48:38.772Z,733.44
2017-03-13T07:49:38.752Z,733.41
2017-03-13T07:50:38.729Z,733.46
2017-03-13T07:51:38.711Z,733.39
2017-03-13T07:52:38.696Z,733.4
2017-03-13T07:53:38.673Z,733.51
2017-03-13T07:54:38.653Z,733.55
2017-03-13T07:55:38.639Z,733.57
2017-03-13T07:56:38.616Z,733.67
2017-03-13T07:57:38.596Z,733.64
2017-03-13T07:58:38.784Z,733.61
2017-03-13T07:59:38.559Z,733.61
2017-03-13T08:00:38.545Z,733.61
2017-03-13T08:01:38.525Z,733.63
2017-03-13T08:02:38.506Z,733.62
2017-03-13T08:03:38.488Z,733.66
2017-03-13T08:04:38.464Z,733.65
2017-03-13T08:05:38.445Z,733.69
2017-03-13T08:06:38.426Z,733.77
2017-03-13T08:07:38.408Z,733.74
2017-03-13T08:08:38.393Z,733.77
2017-03-13T08:09:38.371Z,733.71
2017-03-13T08:10:38.352Z,733.78
2017-03-13T08:11:38.338Z,733.76
2017-03-13T08:12:38.319Z,733.82
2017-03-13T08:13:38.300Z,733.7
2017-03-13T08:14:38.282Z,733.73
2017-03-13T08:15:38.262Z,733.78
2017-03-13T08:16:38.267Z,733.74
2017-03-13T08:17:38.226Z,733.77
2017-03-13T08:18:38.207Z,733.74
2017-03-13T08:19:38.184Z,733.82
2017-03-13T08:20:38.164Z,733.82
2017-03-13T08:21:38.151Z,733.78
2017-03-13T08:22:38.133Z,733.87
2017-03-13T08:23:38.114Z,733.77
2017-03-13T08:24:38.091Z,733.9
2017-03-13T08:25:38.071Z,733.89
2017-03-13T08:26:38.057Z,733.88
2017-03-13T08:27:38.034Z,733.92
2017-03-13T08:28:38.015Z,733.92
2017-03-13T08:29:37.994Z,733.94
2017-03-13T08:30:37.978Z,733.96
2017-03-13T08:31:37.955Z,733.98
2017-03-13T08:32:37.938Z,733.97
2017-03-13T08:33:37.921Z,734.06
2017-03-13T08:34:37.895Z,734.05
2017-03-13T08:35:37.875Z,733.95
2017-03-13T08:36:37.859Z,734.07
2017-03-13T08:37:37.840Z,734.07
2017-03-13T08:38:37.819Z,734.11
2017-03-13T08:39:37.797Z,734.1
2017-03-13T08:40:37.776Z,734.15
2017-03-13T08:41:37.784Z,734.11
2017-03-13T08:42:37.740Z,734.13
2017-03-13T08:43:37.721Z,734.15
2017-03-13T08:44:37.698Z,734.17
2017-03-13T08:45:37.677Z,734.2
2017-03-13T08:46:37.662Z,734.17
2017-03-13T08:47:37.642Z,734.16
2017-03-13T08:48:37.623Z,734.17
2017-03-13T08:49:37.598Z,734.18
2017-03-13T08:50:37.583Z,734.17
2017-03-13T08:51:37.559Z,734.27
2017-03-13T08:52:37.542Z,734.25
2017-03-13T08:53:37.519Z,734.21
2017-03-13T08:54:37.502Z,734.3
2017-03-13T08:55:37.480Z,734.28
2017-03-13T08:56:37.459Z,734.24
2017-03-13T08:57:37.443Z,734.29
2017-03-13T08:58:37.420Z,734.28
2017-03-13T08:59:37.400Z,734.29
2017-03-13T09:00:37.380Z,734.25
2017-03-13T09:01:37.360Z,734.33
2017-03-13T09:02:37.341Z,734.28
2017-03-13T09:03:37.324Z,734.32
2017-03-13T09:04:37.305Z,734.29
2017-03-13T09:05:37.285Z,734.37
2017-03-13T09:06:37.262Z,734.29
2017-03-13T09:07:37.273Z,734.35
2017-03-13T09:08:37.222Z,734.32
2017-03-13T09:09:37.207Z,734.42
2017-03-13T09:10:37.184Z,734.4
2017-03-13T09:11:37.167Z,734.47
2017-03-13T09:12:37.146Z,734.41
2017-03-13T09:13:37.125Z,734.46
2017-03-13T09:14:37.108Z,734.47
2017-03-13T09:15:37.085Z,734.5
2017-03-13T09:16:37.077Z,734.5
2017-03-13T09:17:37.048Z,734.5
2017-03-13T09:18:37.028Z,734.43
2017-03-13T09:19:37.013Z,734.51
2017-03-13T09:20:36.990Z,734.46
2017-03-13T09:21:36.975Z,734.55
2017-03-13T09:22:36.952Z,734.55
2017-03-13T09:23:36.934Z,734.56
2017-03-13T09:24:36.914Z,734.61
2017-03-13T09:25:36.896Z,734.6
2017-03-13T09:26:36.879Z,734.63
2017-03-13T09:27:36.859Z,734.65
2017-03-13T09:28:36.838Z,734.7
2017-03-13T09:29:36.822Z,734.69
2017-03-13T09:30:36.803Z,734.7
2017-03-13T09:31:36.785Z,734.69
2017-03-13T09:32:36.765Z,734.73
2017-03-13T09:33:36.747Z,734.76
2017-03-13T09:34:36.726Z,734.77
2017-03-13T09:35:36.709Z,734.8
2017-03-13T09:36:36.690Z,734.77
2017-03-13T09:37:36.672Z,734.81
2017-03-13T09:38:36.655Z,734.76
2017-03-13T09:39:36.637Z,734.78
2017-03-13T09:40:36.623Z,734.83
2017-03-13T09:41:36.601Z,734.84
2017-03-13T09:42:36.583Z,734.81
2017-03-13T09:43:36.566Z,734.84
2017-03-13T09:44:36.549Z,734.82
2017-03-13T09:45:36.534Z,734.82
2017-03-13T09:46:36.517Z,734.85
2017-03-13T09:47:36.697Z,734.87
2017-03-13T09:48:36.477Z,734.86
2017-03-13T09:49:36.463Z,734.83
2017-03-13T09:50:36.446Z,734.79
2017-03-13T09:51:36.427Z,734.84
2017-03-13T09:52:36.409Z,734.84
2017-03-13T09:53:36.389Z,734.82
2017-03-13T09:54:36.370Z,734.9
2017-03-13T09:55:36.356Z,734.89
2017-03-13T09:56:36.339Z,734.89
2017-03-13T09:57:36.321Z,734.9
2017-03-13T09:58:36.302Z,734.89
2017-03-13T09:59:36.286Z,734.89
2017-03-13T10:00:36.266Z,734.9
2017-03-13T10:01:36.248Z,734.93
2017-03-13T10:02:36.232Z,734.91
2017-03-13T10:03:36.217Z,734.93
2017-03-13T10:04:36.196Z,734.97
2017-03-13T10:05:36.179Z,734.95
2017-03-13T10:06:36.167Z,735.01
2017-03-13T10:07:36.147Z,735.04
2017-03-13T10:08:36.134Z,735.01
2017-03-13T10:09:36.117Z,735
2017-03-13T10:10:36.101Z,735
2017-03-13T10:11:36.080Z,734.96
2017-03-13T10:12:36.069Z,734.98
2017-03-13T10:13:36.048Z,735.03
2017-03-13T10:14:36.036Z,734.98
2017-03-13T10:15:36.021Z,734.98
2017-03-13T10:16:35.999Z,734.98
2017-03-13T10:17:35.983Z,735.02
2017-03-13T10:18:35.972Z,735.07
2017-03-13T10:19:35.957Z,735.05
2017-03-13T10:20:35.936Z,735.08
2017-03-13T10:21:35.925Z,735.08
2017-03-13T10:22:35.909Z,735.13
2017-03-13T10:23:35.896Z,735.12
2017-03-13T10:24:35.876Z,735.12
2017-03-13T10:25:35.865Z,735.13
2017-03-13T10:26:35.847Z,735.22
2017-03-13T10:27:35.835Z,735.24
2017-03-13T10:28:35.818Z,735.23
2017-03-13T10:29:35.804Z,735.22
2017-03-13T10:30:35.790Z,735.2
2017-03-13T10:31:35.774Z,735.24
2017-03-13T10:32:35.761Z,735.28
2017-03-13T10:33:35.747Z,735.3
2017-03-13T10:34:35.732Z,735.34
2017-03-13T10:35:35.723Z,735.36
2017-03-13T10:36:35.706Z,735.34
2017-03-13T10:37:35.691Z,735.36
2017-03-13T10:38:35.677Z,735.35
2017-03-13T10:39:35.664Z,735.39
2017-03-13T10:40:35.650Z,735.41
2017-03-13T10:41:35.642Z,735.41
2017-03-13T10:42:35.628Z,735.42
2017-03-13T10:43:35.615Z,735.47
2017-03-13T10:44:35.598Z,735.44
2017-03-13T10:45:35.583Z,735.43
2017-03-13T10:46:35.571Z,735.47
2017-03-13T10:47:35.557Z,735.44
2017-03-13T10:48:35.548Z,735.45
2017-03-13T10:49:35.533Z,735.51
2017-03-13T10:50:35.516Z,735.44
2017-03-13T10:51:35.501Z,735.49
2017-03-13T10:52:35.486Z,735.49
2017-03-13T10:53:35.474Z,735.53
2017-03-13T10:54:35.455Z,735.49
2017-03-13T10:55:35.438Z,735.53
2017-03-13T10:56:35.454Z,735.53
2017-03-13T10:57:35.410Z,735.59
2017-03-13T10:58:35.396Z,735.54
2017-03-13T10:59:35.379Z,735.58
2017-03-13T11:00:35.359Z,735.6
2017-03-13T11:01:35.347Z,735.59
2017-03-13T11:02:35.330Z,735.54
2017-03-13T11:03:35.311Z,735.64
2017-03-13T11:04:35.297Z,735.6
2017-03-13T11:05:35.282Z,735.61
2017-03-13T11:06:35.265Z,735.61
2017-03-13T11:07:35.246Z,735.59
2017-03-13T11:08:35.233Z,735.58
2017-03-13T11:09:35.214Z,735.68
2017-03-13T11:10:35.200Z,735.68
2017-03-13T11:11:35.178Z,735.72
2017-03-13T11:12:35.166Z,735.65
2017-03-13T11:13:35.144Z,735.63
2017-03-13T11:14:35.128Z,735.66
2017-03-13T11:15:35.110Z,735.67
2017-03-13T11:16:35.093Z,735.66
2017-03-13T11:17:35.080Z,735.65
2017-03-13T11:18:35.060Z,735.62
2017-03-13T11:19:35.044Z,735.61
2017-03-13T11:20:35.023Z,735.59
2017-03-13T11:21:35.005Z,735.57
2017-03-13T11:22:34.987Z,735.61
2017-03-13T11:23:34.972Z,735.67
2017-03-13T11:24:34.957Z,735.64
2017-03-13T11:25:34.942Z,735.61
2017-03-13T11:26:34.924Z,735.64
2017-03-13T11:27:34.907Z,735.68
2017-03-13T11:28:34.887Z,735.71
2017-03-13T11:29:34.873Z,735.7
2017-03-13T11:30:34.851Z,735.72
2017-03-13T11:31:34.838Z,735.72
2017-03-13T11:32:34.819Z,735.7
2017-03-13T11:33:34.805Z,735.78
2017-03-13T11:34:34.788Z,735.77
2017-03-13T11:35:34.767Z,735.81
2017-03-13T11:36:34.754Z,735.8
2017-03-13T11:37:34.738Z,735.85
2017-03-13T11:38:34.717Z,735.84
2017-03-13T11:39:34.703Z,735.87
2017-03-13T11:40:34.688Z,735.84
2017-03-13T11:41:34.668Z,735.81
2017-03-13T11:42:34.655Z,735.81
2017-03-13T11:43:34.635Z,735.81
2017-03-13T11:44:34.619Z,735.81
2017-03-13T11:45:34.600Z,735.84
2017-03-13T11:46:34.583Z,735.85
2017-03-13T11:47:34.567Z,735.9
2017-03-13T11:48:34.553Z,735.89
2017-03-13T11:49:34.533Z,735.88
2017-03-13T11:50:34.519Z,735.91
2017-03-13T11:51:34.499Z,735.86
2017-03-13T11:52:34.486Z,735.84
2017-03-13T11:53:34.465Z,735.89
2017-03-13T11:54:34.453Z,735.86
2017-03-13T11:55:34.432Z,735.83
2017-03-13T11:56:34.417Z,735.94
2017-03-13T11:57:34.404Z,735.92
2017-03-13T11:58:34.388Z,735.97
2017-03-13T11:59:34.367Z,735.87
2017-03-13T12:00:34.355Z,735.9
2017-03-13T12:01:34.341Z,735.8
2017-03-13T12:02:34.322Z,735.79
2017-03-13T12:03:34.302Z,735.82
2017-03-13T12:04:34.291Z,735.73
2017-03-13T12:05:34.274Z,735.8
2017-03-13T12:06:34.263Z,735.82
2017-03-13T12:07:34.236Z,735.77
2017-03-13T12:08:34.224Z,735.79
2017-03-13T12:09:34.203Z,735.8
2017-03-13T12:10:34.187Z,735.85
2017-03-13T12:11:34.173Z,735.81
2017-03-13T12:12:34.160Z,735.86
2017-03-13T12:13:34.135Z,735.86
2017-03-13T12:14:34.120Z,735.86
2017-03-13T12:15:34.103Z,735.84
2017-03-13T12:16:34.082Z,735.76
2017-03-13T12:17:34.066Z,735.79
2017-03-13T12:18:34.046Z,735.81
2017-03-13T12:19:34.034Z,735.87
2017-03-13T12:20:34.010Z,735.9
2017-03-13T12:21:33.990Z,735.84
2017-03-13T12:22:33.973Z,735.95
2017-03-13T12:23:33.958Z,735.95
2017-03-13T12:24:33.940Z,735.9
2017-03-13T12:25:33.917Z,735.96
2017-03-13T12:26:33.904Z,735.93
2017-03-13T12:27:33.887Z,735.91
2017-03-13T12:28:33.868Z,735.92
2017-03-13T12:29:33.850Z,735.89
2017-03-13T12:30:33.829Z,735.88
2017-03-13T12:31:33.815Z,735.85